createdAt,value
2019-06-20T00:00:03.200Z,30.35
2019-06-20T00:03:08.240Z,36.96
2019-06-20T00:06:12.617Z,35.52
2019-06-20T00:09:16.941Z,40.75
2019-06-20T00:12:21.316Z,35.95
2019-06-20T00:15:25.753Z,35.73
2019-06-20T00:18:30.007Z,40.73
2019-06-20T00:21:34.298Z,37.35
2019-06-20T00:24:38.723Z,33.75
2019-06-20T00:27:43.063Z,39.27
2019-06-20T00:30:47.371Z,46.35
2019-06-20T00:33:51.668Z,39.95
2019-06-20T00:36:56.010Z,41.57
2019-06-20T00:40:00.300Z,43.73
2019-06-20T00:43:16.921Z,42.47
2019-06-20T00:46:13.200Z,42.83
2019-06-20T00:49:17.509Z,38.15
2019-06-20T00:52:21.791Z,50.78
2019-06-20T00:55:27.028Z,51.65
2019-06-20T00:58:31.311Z,42.65
2019-06-20T01:01:35.641Z,57.53
2019-06-20T01:04:40.043Z,40.03
2019-06-20T01:07:44.295Z,45.38
2019-06-20T01:10:48.605Z,49.23
2019-06-20T01:13:53.077Z,48.45
2019-06-20T01:16:57.308Z,47.83
2019-06-20T01:20:01.619Z,53.35
2019-06-20T01:23:06.071Z,49.67
2019-06-20T01:26:10.378Z,47.78
2019-06-20T01:29:14.567Z,52.17
2019-06-20T01:32:18.839Z,48.35
2019-06-20T01:35:23.176Z,58.37
2019-06-20T01:38:27.468Z,56.08
2019-06-20T01:41:31.826Z,51.30
2019-06-20T01:44:36.092Z,55.48
2019-06-20T01:47:40.338Z,63.08
2019-06-20T01:50:44.775Z,65.10
2019-06-20T01:53:49.588Z,55.43
2019-06-20T01:56:53.849Z,56.60
2019-06-20T01:59:59.070Z,65.50
2019-06-20T02:03:03.446Z,59.53
2019-06-20T02:06:07.712Z,60.63
2019-06-20T02:09:11.948Z,54.65
2019-06-20T02:12:16.153Z,59.08
2019-06-20T02:15:23.428Z,60.50
2019-06-20T02:18:27.694Z,59.60
2019-06-20T02:21:32.066Z,73.13
2019-06-20T02:24:36.335Z,66.97
2019-06-20T02:27:40.749Z,63.83
2019-06-20T02:30:45.333Z,59.47
2019-06-20T02:33:49.700Z,58.85
2019-06-20T02:36:53.990Z,64.72
2019-06-20T02:39:58.312Z,63.63
2019-06-20T02:43:02.634Z,71.97
2019-06-20T02:46:06.947Z,74.30
2019-06-20T02:49:11.272Z,71.50
2019-06-20T02:52:15.556Z,60.17
2019-06-20T02:55:19.854Z,73.30
2019-06-20T02:58:24.158Z,68.85
2019-06-20T03:01:28.540Z,66.17
2019-06-20T03:04:32.966Z,69.32
2019-06-20T03:07:37.290Z,79.25
2019-06-20T03:10:41.630Z,75.90
2019-06-20T03:13:45.906Z,76.00
2019-06-20T03:16:50.123Z,78.02
2019-06-20T03:19:54.519Z,81.42
2019-06-20T03:22:58.825Z,86.40
2019-06-20T03:26:03.068Z,96.20
2019-06-20T03:29:07.379Z,83.87
2019-06-20T03:32:11.681Z,88.45
2019-06-20T03:35:16.097Z,90.43
2019-06-20T03:38:20.342Z,84.80
2019-06-20T03:41:24.723Z,89.05
2019-06-20T03:44:28.994Z,88.33
2019-06-20T03:47:36.307Z,93.47
2019-06-20T03:50:40.653Z,85.30
2019-06-20T03:53:44.948Z,88.85
2019-06-20T03:56:49.241Z,93.25
2019-06-20T03:59:53.718Z,91.70
2019-06-20T04:02:58.039Z,87.42
2019-06-20T04:06:02.310Z,93.65
2019-06-20T04:09:06.990Z,84.25
2019-06-20T04:12:11.313Z,82.78
2019-06-20T04:15:19.382Z,84.93
2019-06-20T04:18:21.599Z,86.15
2019-06-20T04:21:25.883Z,84.97
2019-06-20T04:24:30.205Z,87.40
2019-06-20T04:27:34.559Z,91.70
2019-06-20T04:30:38.906Z,85.22
2019-06-20T04:33:43.229Z,90.37
2019-06-20T04:36:48.219Z,87.78
2019-06-20T04:39:52.530Z,90.00
2019-06-20T04:42:56.864Z,91.90
2019-06-20T04:46:06.748Z,85.50
2019-06-20T04:49:11.126Z,84.28
2019-06-20T04:52:15.404Z,86.80
2019-06-20T04:55:19.773Z,90.80
2019-06-20T04:58:24.064Z,79.20
2019-06-20T05:01:28.334Z,85.62
2019-06-20T05:04:32.880Z,89.20
2019-06-20T05:07:37.225Z,91.32
2019-06-20T05:10:41.650Z,85.25
2019-06-20T05:13:45.976Z,91.72
2019-06-20T05:16:50.279Z,84.67
2019-06-20T05:19:54.622Z,87.15
2019-06-20T05:22:58.966Z,77.95
2019-06-20T05:26:03.263Z,84.67
2019-06-20T05:29:07.581Z,70.75
2019-06-20T05:32:11.995Z,76.35
2019-06-20T05:35:16.430Z,88.58
2019-06-20T05:38:20.761Z,86.37
2019-06-20T05:41:25.042Z,80.77
2019-06-20T05:44:29.404Z,74.00
2019-06-20T05:47:33.708Z,72.65
2019-06-20T05:50:39.745Z,68.70
2019-06-20T05:53:43.959Z,75.33
2019-06-20T05:56:48.312Z,79.97
2019-06-20T05:59:52.601Z,80.36
2019-06-20T06:02:58.145Z,82.27
2019-06-20T06:06:02.512Z,74.87
2019-06-20T06:09:07.485Z,76.60
2019-06-20T06:12:11.780Z,77.03
2019-06-20T06:15:16.400Z,80.63
2019-06-20T06:18:20.608Z,72.05
2019-06-20T06:21:24.912Z,72.50
2019-06-20T06:24:29.180Z,73.75
2019-06-20T06:27:34.366Z,73.67
2019-06-20T06:30:38.634Z,65.40
2019-06-20T06:33:42.964Z,67.42
2019-06-20T06:36:47.424Z,76.95
2019-06-20T06:39:51.754Z,68.52
2019-06-20T06:42:56.048Z,75.47
2019-06-20T06:46:00.311Z,67.53
2019-06-20T06:49:04.721Z,71.07
2019-06-20T06:52:09.039Z,69.15
2019-06-20T06:55:14.411Z,70.86
2019-06-20T06:58:18.722Z,65.57
2019-06-20T07:01:23.014Z,48.83
2019-06-20T07:04:27.325Z,48.73
2019-06-20T07:07:31.600Z,49.65
2019-06-20T07:10:35.925Z,52.60
2019-06-20T07:13:40.284Z,50.03
2019-06-20T07:16:59.443Z,56.60
2019-06-20T07:19:50.482Z,60.33
2019-06-20T07:22:55.405Z,50.63
2019-06-20T07:25:59.723Z,60.25
2019-06-20T07:29:04.088Z,48.42
2019-06-20T07:32:08.372Z,42.40
2019-06-20T07:35:12.819Z,47.05
2019-06-20T07:38:18.034Z,42.55
2019-06-20T07:41:22.317Z,43.90
2019-06-20T07:44:26.623Z,48.80
2019-06-20T07:47:31.020Z,47.38
2019-06-20T07:50:39.338Z,46.78
2019-06-20T07:53:42.190Z,45.40
2019-06-20T07:56:46.460Z,43.87
2019-06-20T07:59:50.709Z,43.00
2019-06-20T08:02:55.135Z,45.30
2019-06-20T08:05:59.441Z,41.08
2019-06-20T08:09:04.292Z,43.30
2019-06-20T08:12:08.518Z,41.15
2019-06-20T08:15:15.951Z,39.63
2019-06-20T08:18:20.603Z,45.23
2019-06-20T08:21:24.908Z,44.25
2019-06-20T08:24:29.176Z,40.98
2019-06-20T08:27:52.419Z,48.17
2019-06-20T08:30:57.730Z,43.20
2019-06-20T08:34:02.884Z,36.95
2019-06-20T08:37:07.274Z,37.83
2019-06-20T08:40:11.551Z,38.65
2019-06-20T08:43:15.831Z,37.40
2019-06-20T08:46:20.102Z,38.40
2019-06-20T08:49:25.036Z,31.65
2019-06-20T08:52:29.229Z,43.08
2019-06-20T08:55:33.598Z,33.63
2019-06-20T08:58:37.958Z,32.97
2019-06-20T09:01:42.279Z,27.30
2019-06-20T09:04:46.543Z,33.38
2019-06-20T09:07:50.850Z,30.17
2019-06-20T09:10:55.709Z,30.97
2019-06-20T09:14:01.476Z,41.57
2019-06-20T09:17:05.990Z,29.77
2019-06-20T09:20:10.675Z,31.40
2019-06-20T09:23:15.044Z,32.25
2019-06-20T09:26:19.377Z,34.33
2019-06-20T09:29:23.658Z,35.28
2019-06-20T09:32:27.972Z,36.23
2019-06-20T09:35:32.321Z,32.80
2019-06-20T09:38:36.688Z,33.08
2019-06-20T09:41:40.959Z,31.10
2019-06-20T09:44:45.380Z,31.93
2019-06-20T09:47:50.964Z,35.45
2019-06-20T09:50:56.914Z,26.33
2019-06-20T09:54:01.227Z,23.12
2019-06-20T09:57:05.548Z,24.27
2019-06-20T10:00:11.788Z,23.25
2019-06-20T10:03:16.268Z,22.75
2019-06-20T10:06:20.549Z,22.85
2019-06-20T10:09:24.914Z,21.80
2019-06-20T10:12:29.521Z,16.23
2019-06-20T10:15:35.878Z,13.83
2019-06-20T10:18:40.247Z,14.45
2019-06-20T10:21:46.203Z,18.17
2019-06-20T10:24:51.315Z,17.45
2019-06-20T10:27:55.662Z,13.20
2019-06-20T10:31:00.790Z,17.70
2019-06-20T10:34:05.219Z,10.03
2019-06-20T10:37:09.616Z,11.30
2019-06-20T10:40:14.434Z,13.25
2019-06-20T10:43:18.724Z,9.95
2019-06-20T10:46:23.231Z,13.33
2019-06-20T10:49:27.545Z,15.47
2019-06-20T10:52:31.947Z,16.77
2019-06-20T10:55:36.158Z,23.60
2019-06-20T10:58:41.588Z,14.10
2019-06-20T11:01:46.727Z,15.67
2019-06-20T11:04:51.299Z,11.73
2019-06-20T11:07:55.626Z,13.03
2019-06-20T11:10:59.920Z,13.80
2019-06-20T11:14:04.500Z,11.25
2019-06-20T11:17:08.791Z,14.07
2019-06-20T11:20:14.062Z,22.40
2019-06-20T11:23:18.288Z,9.08
2019-06-20T11:26:22.551Z,8.88
2019-06-20T11:29:27.116Z,15.88
2019-06-20T11:32:31.970Z,9.13
2019-06-20T11:35:37.731Z,9.38
2019-06-20T11:38:42.533Z,7.17
2019-06-20T11:41:48.426Z,8.05
2019-06-20T11:44:52.841Z,9.73
2019-06-20T11:47:58.003Z,9.53
2019-06-20T11:51:02.315Z,9.50
2019-06-20T11:54:06.669Z,12.25
2019-06-20T11:57:10.916Z,12.05
2019-06-20T12:00:15.914Z,10.90
2019-06-20T12:03:20.146Z,20.77
2019-06-20T12:06:24.618Z,12.47
2019-06-20T12:09:28.986Z,13.48
2019-06-20T12:12:33.363Z,9.60
2019-06-20T12:15:38.085Z,13.55
2019-06-20T12:18:45.175Z,12.80
2019-06-20T12:21:49.535Z,12.85
2019-06-20T12:24:53.922Z,8.55
2019-06-20T12:27:58.254Z,14.52
2019-06-20T12:31:18.239Z,10.28
2019-06-20T12:34:08.668Z,10.37
2019-06-20T12:37:12.984Z,12.00
2019-06-20T12:40:17.729Z,13.90
2019-06-20T12:43:21.992Z,13.80
2019-06-20T12:46:26.352Z,6.72
2019-06-20T12:49:30.612Z,10.08
2019-06-20T12:52:34.978Z,7.33
2019-06-20T12:55:40.360Z,6.40
2019-06-20T12:58:44.774Z,7.75
2019-06-20T13:01:49.899Z,9.83
2019-06-20T13:04:55.348Z,6.53
2019-06-20T13:07:59.780Z,7.75
2019-06-20T13:11:04.405Z,6.55
2019-06-20T13:14:08.805Z,8.50
2019-06-20T13:17:13.005Z,5.10
2019-06-20T13:20:18.384Z,12.80
2019-06-20T13:23:22.662Z,5.00
2019-06-20T13:26:27.054Z,8.85
2019-06-20T13:29:31.330Z,5.40
2019-06-20T13:32:35.651Z,5.97
2019-06-20T13:35:41.625Z,5.87
2019-06-20T13:38:46.682Z,12.53
2019-06-20T13:41:51.129Z,10.83
2019-06-20T13:44:55.410Z,8.03
2019-06-20T13:47:59.655Z,6.80
2019-06-20T13:51:03.962Z,5.87
2019-06-20T13:54:08.285Z,8.13
2019-06-20T13:57:12.617Z,6.85
2019-06-20T14:00:18.279Z,12.70
2019-06-20T14:03:22.912Z,9.88
2019-06-20T14:06:27.192Z,6.00
2019-06-20T14:09:31.613Z,11.35
2019-06-20T14:12:35.965Z,11.50
2019-06-20T14:15:42.661Z,9.40
2019-06-20T14:18:46.531Z,12.18
2019-06-20T14:21:50.856Z,6.57
2019-06-20T14:24:55.483Z,14.90
2019-06-20T14:27:59.872Z,7.20
2019-06-20T14:31:04.200Z,10.05
2019-06-20T14:34:08.418Z,8.77
2019-06-20T14:37:12.736Z,6.97
2019-06-20T14:40:17.187Z,10.00
2019-06-20T14:43:21.467Z,7.25
2019-06-20T14:46:25.838Z,7.28
2019-06-20T14:49:30.145Z,6.87
2019-06-20T14:52:34.470Z,8.00
2019-06-20T14:55:38.779Z,9.33
2019-06-20T14:58:44.724Z,6.10
2019-06-20T15:01:50.589Z,10.15
2019-06-20T15:04:55.070Z,7.80
2019-06-20T15:07:59.411Z,16.10
2019-06-20T15:11:03.959Z,10.68
2019-06-20T15:14:08.376Z,9.18
2019-06-20T15:17:12.734Z,9.73
2019-06-20T15:20:19.058Z,7.28
2019-06-20T15:23:23.441Z,9.03
2019-06-20T15:26:27.726Z,9.63
2019-06-20T15:29:31.980Z,8.48
2019-06-20T15:32:36.374Z,7.10
2019-06-20T15:35:40.883Z,4.83
2019-06-20T15:38:47.652Z,12.07
2019-06-20T15:41:54.040Z,11.80
2019-06-20T15:44:58.484Z,17.30
2019-06-20T15:48:02.887Z,13.32
2019-06-20T15:51:07.176Z,13.78
2019-06-20T15:54:11.598Z,12.95
2019-06-20T15:57:15.978Z,12.00
2019-06-20T16:00:21.603Z,16.20
2019-06-20T16:03:25.876Z,13.88
2019-06-20T16:06:30.294Z,11.95
2019-06-20T16:09:34.643Z,14.10
2019-06-20T16:12:39.076Z,12.73
2019-06-20T16:15:43.351Z,13.08
2019-06-20T16:18:48.326Z,14.05
2019-06-20T16:21:52.744Z,11.05
2019-06-20T16:24:57.090Z,12.35
2019-06-20T16:28:01.636Z,10.55
2019-06-20T16:31:10.316Z,9.83
2019-06-20T16:34:12.135Z,13.55
2019-06-20T16:37:16.578Z,17.40
2019-06-20T16:40:30.046Z,13.10
2019-06-20T16:43:34.547Z,11.53
2019-06-20T16:46:38.899Z,9.55
2019-06-20T16:49:43.434Z,12.18
2019-06-20T16:52:47.842Z,16.27
2019-06-20T16:55:52.167Z,8.65
2019-06-20T16:58:56.472Z,10.05
2019-06-20T17:02:00.855Z,12.28
2019-06-20T17:05:06.453Z,11.88
2019-06-20T17:08:10.798Z,6.47
2019-06-20T17:11:15.355Z,8.25
2019-06-20T17:14:19.767Z,10.05
2019-06-20T17:17:24.126Z,7.63
2019-06-20T17:20:28.527Z,10.35
2019-06-20T17:23:32.968Z,7.13
2019-06-20T17:26:37.358Z,13.00
2019-06-20T17:29:41.739Z,7.95
2019-06-20T17:32:45.952Z,7.07
2019-06-20T17:35:50.365Z,4.35
2019-06-20T17:39:13.782Z,7.67
2019-06-20T17:42:18.332Z,8.18
2019-06-20T17:45:22.945Z,5.97
2019-06-20T17:48:27.294Z,8.13
2019-06-20T17:51:31.643Z,11.20
2019-06-20T17:54:35.933Z,5.33
2019-06-20T17:57:40.352Z,4.58
2019-06-20T18:00:44.613Z,7.03
2019-06-20T18:03:49.063Z,9.95
2019-06-20T18:06:53.416Z,8.05
2019-06-20T18:09:57.892Z,7.37
2019-06-20T18:13:02.229Z,10.10
2019-06-20T18:16:06.610Z,5.15
2019-06-20T18:19:11.049Z,15.20
2019-06-20T18:22:15.816Z,7.27
2019-06-20T18:25:20.242Z,4.62
2019-06-20T18:28:25.244Z,11.57
2019-06-20T18:31:29.631Z,6.10
2019-06-20T18:34:34.006Z,7.13
2019-06-20T18:37:38.403Z,4.15
2019-06-20T18:40:42.703Z,7.73
2019-06-20T18:43:47.076Z,3.87
2019-06-20T18:46:51.539Z,10.05
2019-06-20T18:49:55.834Z,8.00
2019-06-20T18:53:00.190Z,5.55
2019-06-20T18:56:04.603Z,5.05
2019-06-20T18:59:08.892Z,6.17
2019-06-20T19:02:13.361Z,8.98
2019-06-20T19:05:17.841Z,7.95
2019-06-20T19:08:22.183Z,6.35
2019-06-20T19:11:26.681Z,9.95
2019-06-20T19:14:31.269Z,4.83
2019-06-20T19:17:35.633Z,9.03
2019-06-20T19:20:40.024Z,5.08
2019-06-20T19:23:44.435Z,9.38
2019-06-20T19:26:48.852Z,5.53
2019-06-20T19:29:53.256Z,4.75
2019-06-20T19:32:58.505Z,6.53
2019-06-20T19:36:02.935Z,4.42
2019-06-20T19:39:07.943Z,9.50
2019-06-20T19:42:14.949Z,6.50
2019-06-20T19:45:21.066Z,6.33
2019-06-20T19:48:26.183Z,8.45
2019-06-20T19:51:30.638Z,9.20
2019-06-20T19:54:35.079Z,5.97
2019-06-20T19:57:39.980Z,7.30
2019-06-20T20:00:46.788Z,8.00
2019-06-20T20:03:53.313Z,9.78
2019-06-20T20:06:57.741Z,7.45
2019-06-20T20:10:02.140Z,7.00
2019-06-20T20:13:07.975Z,7.75
2019-06-20T20:16:12.600Z,6.93
2019-06-20T20:19:16.892Z,3.73
2019-06-20T20:22:21.165Z,8.45
2019-06-20T20:25:25.475Z,9.00
2019-06-20T20:28:29.810Z,8.60
2019-06-20T20:31:34.141Z,8.53
2019-06-20T20:34:38.445Z,12.40
2019-06-20T20:37:43.087Z,6.05
2019-06-20T20:40:47.296Z,15.10
2019-06-20T20:43:51.529Z,7.75
2019-06-20T20:46:55.781Z,5.00
2019-06-20T20:50:00.132Z,5.40
2019-06-20T20:53:04.405Z,7.55
2019-06-20T20:56:08.789Z,5.62
2019-06-20T20:59:13.084Z,6.40
2019-06-20T21:02:17.448Z,3.42
2019-06-20T21:05:21.742Z,5.10
2019-06-20T21:08:28.764Z,10.05
2019-06-20T21:11:32.994Z,11.83
2019-06-20T21:14:37.355Z,8.90
2019-06-20T21:17:41.646Z,7.50
2019-06-20T21:20:45.974Z,5.80
2019-06-20T21:23:50.260Z,13.95
2019-06-20T21:26:54.503Z,7.75
2019-06-20T21:29:58.853Z,9.53
2019-06-20T21:33:03.173Z,6.95
2019-06-20T21:36:09.082Z,9.08
2019-06-20T21:39:13.413Z,9.08
2019-06-20T21:42:17.607Z,10.93
2019-06-20T21:45:22.309Z,8.93
2019-06-20T21:48:26.502Z,11.33
2019-06-20T21:51:30.895Z,7.25
2019-06-20T21:54:36.024Z,6.40
2019-06-20T21:57:40.617Z,7.22
2019-06-20T22:00:47.314Z,5.20
2019-06-20T22:03:51.663Z,6.37
2019-06-20T22:06:55.855Z,6.70
2019-06-20T22:10:00.115Z,9.23
2019-06-20T22:13:04.561Z,7.00
2019-06-20T22:16:08.807Z,10.13
2019-06-20T22:19:13.064Z,11.33
2019-06-20T22:22:17.311Z,8.88
2019-06-20T22:25:23.650Z,8.28
2019-06-20T22:28:27.920Z,9.95
2019-06-20T22:31:32.208Z,5.33
2019-06-20T22:34:36.415Z,9.90
2019-06-20T22:37:40.616Z,13.10
2019-06-20T22:40:44.967Z,11.05
2019-06-20T22:43:49.237Z,7.53
2019-06-20T22:46:53.688Z,8.95
2019-06-20T22:49:57.952Z,5.53
2019-06-20T22:53:02.307Z,11.93
2019-06-20T22:56:06.501Z,6.95
2019-06-20T22:59:10.804Z,7.40
2019-06-20T23:02:15.129Z,7.80
2019-06-20T23:05:19.597Z,6.30
2019-06-20T23:08:23.918Z,12.33
2019-06-20T23:11:28.288Z,8.23
2019-06-20T23:14:32.667Z,10.60
2019-06-20T23:17:36.977Z,13.83
2019-06-20T23:20:41.186Z,4.17
2019-06-20T23:23:45.550Z,5.60
2019-06-20T23:26:49.994Z,7.25
2019-06-20T23:29:54.379Z,5.95
2019-06-20T23:32:58.630Z,14.05
2019-06-20T23:36:02.888Z,6.78
2019-06-20T23:39:07.496Z,7.45
2019-06-20T23:42:11.871Z,7.90
2019-06-20T23:45:16.272Z,13.62
2019-06-20T23:48:20.572Z,7.20
2019-06-20T23:51:26.444Z,5.08
2019-06-20T23:54:30.955Z,6.25
2019-06-20T23:57:35.257Z,7.62
